Time,TemperatureF,DewpointF,PressureIn,WindDirection,WindDirectionDegrees,WindSpeedMPH,WindSpeedGustMPH,Humidity,HourlyPrecipIn,Conditions,Clouds,dailyrainin,SolarRadiationWatts/m^2,SoftwareType,DateUTC
2013-05-02 01:42:00,57.0,36.0,-100.00,ENE,77,5.0,9.0,46,-99.99,,,0.00,0.000000,,2013-05-02 08:42:00,
2013-05-02 01:52:00,57.0,36.0,-100.00,ENE,77,5.0,9.0,46,-99.99,,,0.00,0.000000,,2013-05-02 08:52:00,
2013-05-02 02:11:00,57.0,36.0,-100.00,ENE,77,5.0,9.0,46,-99.99,,,0.00,0.000000,,2013-05-02 09:11:00,
2013-05-02 02:42:00,56.0,36.0,-100.00,NNW,328,3.0,8.0,47,-99.99,,,0.00,0.000000,,2013-05-02 09:42:00,
2013-05-02 02:52:00,56.0,36.0,-100.00,NNW,328,3.0,8.0,47,-99.99,,,0.00,0.000000,,2013-05-02 09:52:00,
2013-05-02 03:12:00,56.0,36.0,-100.00,NNW,328,3.0,8.0,47,-99.99,,,0.00,0.000000,,2013-05-02 10:12:00,
2013-05-02 03:33:00,55.0,38.0,-100.00,NW,322,5.0,8.0,52,-99.99,,,0.00,0.000000,,2013-05-02 10:33:00,
2013-05-02 03:42:00,55.0,38.0,-100.00,NW,322,5.0,8.0,52,-99.99,,,0.00,0.000000,,2013-05-02 10:42:00,
2013-05-02 03:52:00,55.0,38.0,-100.00,NW,322,5.0,8.0,52,-99.99,,,0.00,0.000000,,2013-05-02 10:52:00,
2013-05-02 04:32:00,54.0,37.0,-100.00,NW,314,4.0,7.0,53,-99.99,,,0.00,0.000000,,2013-05-02 11:32:00,
2013-05-02 04:42:00,54.0,37.0,-100.00,NW,314,4.0,7.0,53,-99.99,,,0.00,0.000000,,2013-05-02 11:42:00,
2013-05-02 04:52:00,54.0,37.0,-100.00,NW,314,4.0,7.0,53,-99.99,,,0.00,0.000000,,2013-05-02 11:52:00,
2013-05-02 05:01:00,54.0,37.0,-100.00,NW,314,4.0,7.0,53,-99.99,,,0.00,0.000000,,2013-05-02 12:01:00,
2013-05-02 06:42:00,53.0,35.0,-100.00,WNW,291,6.0,8.0,51,-99.99,,,0.00,1.000000,,2013-05-02 13:42:00,
2013-05-02 06:52:00,53.0,35.0,-100.00,WNW,291,6.0,8.0,51,-99.99,,,0.00,1.000000,,2013-05-02 13:52:00,
2013-05-02 07:02:00,53.0,35.0,-100.00,WNW,291,6.0,8.0,51,-99.99,,,0.00,1.000000,,2013-05-02 14:02:00,
2013-05-02 07:11:00,53.0,35.0,-100.00,WNW,291,6.0,8.0,51,-99.99,,,0.00,1.000000,,2013-05-02 14:11:00,
2013-05-02 07:43:00,56.0,37.0,-100.00,WSW,258,2.0,6.0,48,0.00,,,0.00,83.000000,,2013-05-02 14:43:00,
2013-05-02 07:52:00,56.0,37.0,-100.00,WSW,258,2.0,6.0,48,0.00,,,0.00,83.000000,,2013-05-02 14:52:00,
2013-05-02 08:02:00,56.0,37.0,-100.00,WSW,258,2.0,6.0,48,0.00,,,0.00,83.000000,,2013-05-02 15:02:00,
2013-05-02 08:13:00,60.0,39.0,-100.00,SE,143,3.0,6.0,46,0.00,,,-99.99,279.000000,,2013-05-02 15:13:00,
2013-05-02 08:33:00,60.0,39.0,-100.00,SE,143,3.0,6.0,46,0.00,,,-99.99,279.000000,,2013-05-02 15:33:00,
2013-05-02 09:32:00,62.0,39.0,-100.00,ESE,122,5.0,7.0,43,0.00,,,0.00,488.000000,,2013-05-02 16:32:00,
2013-05-02 09:52:00,62.0,39.0,-100.00,ESE,122,5.0,7.0,43,0.00,,,0.00,488.000000,,2013-05-02 16:52:00,
2013-05-02 10:02:00,62.0,39.0,-100.00,ESE,122,5.0,7.0,43,0.00,,,0.00,488.000000,,2013-05-02 17:02:00,
2013-05-02 10:12:00,62.0,39.0,-100.00,ESE,122,5.0,7.0,43,0.00,,,0.00,488.000000,,2013-05-02 17:12:00,
2013-05-02 10:32:00,64.0,41.0,-100.00,WNW,301,3.0,8.0,43,0.00,,,0.00,679.000000,,2013-05-02 17:32:00,
2013-05-02 10:42:00,64.0,41.0,-100.00,WNW,301,3.0,8.0,43,0.00,,,0.00,679.000000,,2013-05-02 17:42:00,
2013-05-02 10:52:00,64.0,41.0,-100.00,WNW,301,3.0,8.0,43,0.00,,,0.00,679.000000,,2013-05-02 17:52:00,
2013-05-02 11:01:00,64.0,41.0,-100.00,WNW,301,3.0,8.0,43,0.00,,,0.00,679.000000,,2013-05-02 18:01:00,
2013-05-02 11:11:00,64.0,41.0,-100.00,WNW,301,3.0,8.0,43,0.00,,,0.00,679.000000,,2013-05-02 18:11:00,
2013-05-02 11:42:00,67.0,41.0,-100.00,WNW,289,4.0,9.0,39,0.00,,,-99.99,836.000000,,2013-05-02 18:42:00,
2013-05-02 11:52:00,67.0,41.0,-100.00,WNW,289,4.0,9.0,39,0.00,,,-99.99,836.000000,,2013-05-02 18:52:00,
2013-05-02 12:01:00,67.0,41.0,-100.00,WNW,289,4.0,9.0,39,0.00,,,-99.99,836.000000,,2013-05-02 19:01:00,
2013-05-02 12:11:00,67.0,41.0,-100.00,WNW,289,4.0,9.0,39,0.00,,,-99.99,836.000000,,2013-05-02 19:11:00,
2013-05-02 12:32:00,72.0,41.0,-100.00,NW,318,6.0,13.0,32,0.00,,,0.00,933.000000,,2013-05-02 19:32:00,
2013-05-02 12:42:00,72.0,41.0,-100.00,NW,318,6.0,13.0,32,0.00,,,0.00,933.000000,,2013-05-02 19:42:00,
2013-05-02 12:52:00,72.0,41.0,-100.00,NW,318,6.0,13.0,32,0.00,,,0.00,933.000000,,2013-05-02 19:52:00,
2013-05-02 13:02:00,72.0,41.0,-100.00,NW,318,6.0,13.0,32,0.00,,,0.00,933.000000,,2013-05-02 20:02:00,
2013-05-02 13:11:00,72.0,41.0,-100.00,NW,318,6.0,13.0,32,0.00,,,0.00,933.000000,,2013-05-02 20:11:00,
2013-05-02 13:42:00,76.0,40.0,-100.00,NNW,332,8.0,15.0,27,0.00,,,0.00,1004.000000,,2013-05-02 20:42:00,
2013-05-02 13:52:00,76.0,40.0,-100.00,NNW,332,8.0,15.0,27,0.00,,,0.00,1004.000000,,2013-05-02 20:52:00,
2013-05-02 14:01:00,76.0,40.0,-100.00,NNW,332,8.0,15.0,27,0.00,,,0.00,1004.000000,,2013-05-02 21:01:00,
2013-05-02 14:11:00,76.0,40.0,-100.00,NNW,332,8.0,15.0,27,0.00,,,0.00,1004.000000,,2013-05-02 21:11:00,
2013-05-02 14:42:00,77.0,38.0,-100.00,NW,323,11.0,19.0,25,0.00,,,0.00,997.000000,,2013-05-02 21:42:00,
2013-05-02 14:53:00,77.0,38.0,-100.00,NW,323,11.0,19.0,25,0.00,,,0.00,997.000000,,2013-05-02 21:53:00,
2013-05-02 15:02:00,77.0,38.0,-100.00,NW,323,11.0,19.0,25,0.00,,,0.00,997.000000,,2013-05-02 22:02:00,
2013-05-02 15:12:00,77.0,38.0,-100.00,NW,323,11.0,19.0,25,0.00,,,0.00,997.000000,,2013-05-02 22:12:00,
2013-05-02 15:42:00,75.0,36.0,-100.00,NW,315,17.0,24.0,24,0.00,,,-99.99,926.000000,,2013-05-02 22:42:00,
2013-05-02 15:52:00,75.0,36.0,-100.00,NW,315,17.0,24.0,24,0.00,,,-99.99,926.000000,,2013-05-02 22:52:00,
2013-05-02 16:02:00,75.0,36.0,-100.00,NW,315,17.0,24.0,24,0.00,,,-99.99,926.000000,,2013-05-02 23:02:00,
2013-05-02 16:11:00,75.0,36.0,-100.00,NW,315,17.0,24.0,24,0.00,,,-99.99,926.000000,,2013-05-02 23:11:00,
2013-05-02 16:32:00,72.0,35.0,-100.00,NNW,334,11.0,30.0,26,0.00,,,-99.99,805.000000,,2013-05-02 23:32:00,
2013-05-02 16:42:00,72.0,35.0,-100.00,NNW,334,11.0,30.0,26,0.00,,,-99.99,805.000000,,2013-05-02 23:42:00,
2013-05-02 16:52:00,72.0,35.0,-100.00,NNW,334,11.0,30.0,26,0.00,,,-99.99,805.000000,,2013-05-02 23:52:00,
2013-05-02 17:01:00,72.0,35.0,-100.00,NNW,334,11.0,30.0,26,0.00,,,-99.99,805.000000,,2013-05-03 00:01:00,
2013-05-02 17:11:00,72.0,35.0,-100.00,NNW,334,11.0,30.0,26,0.00,,,-99.99,805.000000,,2013-05-03 00:11:00,
2013-05-02 18:32:00,63.0,31.0,-100.00,NW,320,19.0,30.0,30,-99.99,,,0.00,461.000000,,2013-05-03 01:32:00,
2013-05-02 18:42:00,63.0,31.0,-100.00,NW,320,19.0,30.0,30,-99.99,,,0.00,461.000000,,2013-05-03 01:42:00,
2013-05-02 18:52:00,63.0,31.0,-100.00,NW,320,19.0,30.0,30,-99.99,,,0.00,461.000000,,2013-05-03 01:52:00,
2013-05-02 19:01:00,63.0,31.0,-100.00,NW,320,19.0,30.0,30,-99.99,,,0.00,461.000000,,2013-05-03 02:01:00,
2013-05-02 19:11:00,63.0,31.0,-100.00,NW,320,19.0,30.0,30,-99.99,,,0.00,461.000000,,2013-05-03 02:11:00,
2013-05-02 19:32:00,60.0,31.0,-100.00,NW,317,15.0,25.0,33,0.00,,,0.00,229.000000,,2013-05-03 02:32:00,
2013-05-02 20:11:00,60.0,31.0,-100.00,NW,317,15.0,25.0,33,0.00,,,0.00,229.000000,,2013-05-03 03:11:00,
2013-05-02 20:33:00,57.0,32.0,-100.00,WNW,283,6.0,18.0,38,0.00,,,0.00,67.000000,,2013-05-03 03:33:00,
2013-05-02 20:43:00,57.0,32.0,-100.00,WNW,283,6.0,18.0,38,0.00,,,0.00,67.000000,,2013-05-03 03:43:00,
2013-05-02 20:53:00,57.0,32.0,-100.00,WNW,283,6.0,18.0,38,0.00,,,0.00,67.000000,,2013-05-03 03:53:00,
2013-05-02 21:02:00,57.0,32.0,-100.00,WNW,283,6.0,18.0,38,0.00,,,0.00,67.000000,,2013-05-03 04:02:00,
2013-05-02 21:12:00,57.0,32.0,-100.00,WNW,283,6.0,18.0,38,0.00,,,0.00,67.000000,,2013-05-03 04:12:00,
2013-05-02 21:32:00,55.0,33.0,-100.00,NW,318,9.0,10.0,43,0.00,,,0.00,4.000000,,2013-05-03 04:32:00,
2013-05-02 21:43:00,55.0,33.0,-100.00,NW,318,9.0,10.0,43,0.00,,,0.00,4.000000,,2013-05-03 04:43:00,
2013-05-02 21:53:00,55.0,33.0,-100.00,NW,318,9.0,10.0,43,0.00,,,0.00,4.000000,,2013-05-03 04:53:00,
2013-05-02 22:02:00,55.0,33.0,-100.00,NW,318,9.0,10.0,43,0.00,,,0.00,4.000000,,2013-05-03 05:02:00,
2013-05-02 22:11:00,55.0,33.0,-100.00,NW,318,9.0,10.0,43,0.00,,,0.00,4.000000,,2013-05-03 05:11:00,
2013-05-02 22:32:00,49.0,37.0,-100.00,North,350,4.0,12.0,62,0.00,,,0.00,0.000000,,2013-05-03 05:32:00,
2013-05-02 22:42:00,49.0,37.0,-100.00,North,350,4.0,12.0,62,0.00,,,0.00,0.000000,,2013-05-03 05:42:00,
2013-05-02 22:52:00,49.0,37.0,-100.00,North,350,4.0,12.0,62,0.00,,,0.00,0.000000,,2013-05-03 05:52:00,
2013-05-02 23:01:00,49.0,37.0,-100.00,North,350,4.0,12.0,62,0.00,,,0.00,0.000000,,2013-05-03 06:01:00,
2013-05-02 23:11:00,49.0,37.0,-100.00,North,350,4.0,12.0,62,0.00,,,0.00,0.000000,,2013-05-03 06:11:00,
2013-05-02 23:32:00,47.0,39.0,-100.00,NNW,327,6.0,12.0,73,0.00,,,-99.99,0.000000,,2013-05-03 06:32:00,
2013-05-02 23:42:00,47.0,39.0,-100.00,NNW,327,6.0,12.0,73,0.00,,,-99.99,0.000000,,2013-05-03 06:42:00,
2013-05-02 23:52:00,47.0,39.0,-100.00,NNW,327,6.0,12.0,73,0.00,,,-99.99,0.000000,,2013-05-03 06:52:00,